createdAt,value
2022-09-05T00:00:55.121Z,61.27
2022-09-05T00:01:55.113Z,61.37
2022-09-05T00:02:55.343Z,61.17
2022-09-05T00:03:55.253Z,61.17
2022-09-05T00:04:55.100Z,61.07
2022-09-05T00:06:02.345Z,61.17
2022-09-05T00:06:55.078Z,61.27
2022-09-05T00:07:59.252Z,61.30
2022-09-05T00:08:55.077Z,61.40
2022-09-05T00:09:55.047Z,61.30
2022-09-05T00:11:41.298Z,61.40
2022-09-05T00:11:55.017Z,61.40
2022-09-05T00:13:07.664Z,61.51
2022-09-05T00:13:54.999Z,61.30
2022-09-05T00:15:16.489Z,61.51
2022-09-05T00:15:55.011Z,61.20
2022-09-05T00:16:54.958Z,61.20
2022-09-05T00:21:17.752Z,61.20
2022-09-05T00:24:50.233Z,61.20
2022-09-05T00:25:48.065Z,61.40
2022-09-05T00:26:48.049Z,61.40
2022-09-05T00:27:48.035Z,61.30
2022-09-05T00:28:48.036Z,61.40
2022-09-05T00:31:07.556Z,61.51
2022-09-05T00:31:58.845Z,61.71
2022-09-05T00:32:03.957Z,61.83
2022-09-05T00:33:16.915Z,61.83
2022-09-05T00:34:03.872Z,61.73
2022-09-05T00:35:03.870Z,61.83
2022-09-05T00:36:03.856Z,61.83
2022-09-05T00:37:03.833Z,61.80
2022-09-05T00:38:03.830Z,61.51
2022-09-05T00:39:03.809Z,61.80
2022-09-05T00:40:18.178Z,61.63
2022-09-05T00:41:03.794Z,61.73
2022-09-05T00:42:03.788Z,61.80
2022-09-05T00:43:03.768Z,61.71
2022-09-05T00:44:03.768Z,61.71
2022-09-05T00:45:03.756Z,61.51
2022-09-05T00:46:03.794Z,61.60
2022-09-05T00:47:03.730Z,61.40
2022-09-05T00:48:03.732Z,61.60
2022-09-05T00:49:03.709Z,61.73
2022-09-05T00:50:03.718Z,61.83
2022-09-05T00:51:03.689Z,62.04
2022-09-05T00:52:03.678Z,62.04
2022-09-05T00:53:06.876Z,61.94
2022-09-05T00:54:03.657Z,61.94
2022-09-05T00:55:03.653Z,61.94
2022-09-05T00:56:03.639Z,62.04
2022-09-05T00:57:03.632Z,62.24
2022-09-05T00:58:03.609Z,62.24
2022-09-05T00:59:03.609Z,62.24
2022-09-05T01:00:03.615Z,62.34
2022-09-05T01:01:03.627Z,62.54
2022-09-05T01:02:03.741Z,62.54
2022-09-05T01:03:03.675Z,62.54
2022-09-05T01:04:05.687Z,62.44
2022-09-05T01:05:03.554Z,62.54
2022-09-05T01:06:03.525Z,62.44
2022-09-05T01:07:03.521Z,62.44
2022-09-05T01:08:03.511Z,62.54
2022-09-05T01:09:08.210Z,62.64
2022-09-05T01:10:03.513Z,62.64
2022-09-05T01:11:03.476Z,62.64
2022-09-05T01:12:03.466Z,62.64
2022-09-05T01:13:03.453Z,62.67
2022-09-05T01:14:03.453Z,62.77
2022-09-05T01:15:03.447Z,62.77
2022-09-05T01:16:03.487Z,62.87
2022-09-05T01:17:03.416Z,62.67
2022-09-05T01:18:03.415Z,62.87
2022-09-05T01:19:03.390Z,62.87
2022-09-05T01:20:18.598Z,62.87
2022-09-05T01:21:03.373Z,62.87
2022-09-05T01:22:03.364Z,62.87
2022-09-05T01:23:08.555Z,62.98
2022-09-05T01:24:03.345Z,63.08
2022-09-05T01:25:03.575Z,63.18
2022-09-05T01:26:03.511Z,63.18
2022-09-05T01:27:03.410Z,63.38
2022-09-05T01:28:43.266Z,63.38
2022-09-05T01:29:19.932Z,63.38
2022-09-05T01:30:03.294Z,63.48
2022-09-05T01:31:03.621Z,63.48
2022-09-05T01:32:03.590Z,63.71
2022-09-05T01:33:06.065Z,63.61
2022-09-05T01:34:03.587Z,63.71
2022-09-05T01:35:03.589Z,63.78
2022-09-05T01:36:04.015Z,63.68
2022-09-05T01:37:03.199Z,63.78
2022-09-05T01:38:03.190Z,63.68
2022-09-05T01:39:07.304Z,63.78
2022-09-05T01:40:15.773Z,63.58
2022-09-05T01:41:18.081Z,63.58
2022-09-05T01:42:03.165Z,63.68
2022-09-05T01:43:03.136Z,63.68
2022-09-05T01:44:03.133Z,63.78
2022-09-05T01:45:03.132Z,63.78
2022-09-05T01:46:03.153Z,63.81
2022-09-05T01:47:03.115Z,63.92
2022-09-05T01:48:03.089Z,64.02
2022-09-05T01:49:03.075Z,64.22
2022-09-05T01:50:03.124Z,64.22
2022-09-05T01:51:03.051Z,64.42
2022-09-05T01:52:03.098Z,64.42
2022-09-05T01:53:03.050Z,64.52
2022-09-05T01:54:03.043Z,64.52
2022-09-05T01:55:03.027Z,64.52
2022-09-05T01:56:04.619Z,64.65
2022-09-05T01:57:03.017Z,64.76
2022-09-05T01:58:02.985Z,64.76
2022-09-05T01:59:02.980Z,64.76
2022-09-05T02:00:03.085Z,64.76
2022-09-05T02:01:25.496Z,64.76
2022-09-05T02:02:03.042Z,64.86
2022-09-05T02:03:02.976Z,64.76
2022-09-05T02:04:07.126Z,64.86
2022-09-05T02:05:02.924Z,64.96
2022-09-05T02:06:02.976Z,64.86
2022-09-05T02:07:19.888Z,64.86
2022-09-05T02:08:02.964Z,64.96
2022-09-05T02:09:02.867Z,64.96
2022-09-05T02:10:07.208Z,65.06
2022-09-05T02:11:02.850Z,65.16
2022-09-05T02:12:02.834Z,64.96
2022-09-05T02:13:03.508Z,65.16
2022-09-05T02:14:02.937Z,65.16
2022-09-05T02:15:03.112Z,65.16
2022-09-05T02:16:03.057Z,65.06
2022-09-05T02:17:02.783Z,65.06
2022-09-05T02:18:03.580Z,64.96
2022-09-05T02:19:02.760Z,64.96
2022-09-05T02:20:02.781Z,64.83
2022-09-05T02:21:02.738Z,64.86
2022-09-05T02:22:03.489Z,64.96
2022-09-05T02:23:02.720Z,64.96
2022-09-05T02:24:02.710Z,64.96
2022-09-05T02:26:00.640Z,64.96
2022-09-05T02:26:06.762Z,64.96
2022-09-05T02:27:03.482Z,65.26
2022-09-05T02:28:05.390Z,65.26
2022-09-05T02:29:02.658Z,65.26
2022-09-05T02:30:02.835Z,65.16
2022-09-05T02:31:19.934Z,65.06
2022-09-05T02:32:02.763Z,65.06
2022-09-05T02:33:02.673Z,65.16
2022-09-05T02:34:02.677Z,65.06
2022-09-05T02:35:02.609Z,65.16
2022-09-05T02:36:02.590Z,65.26
2022-09-05T02:37:02.576Z,65.16
2022-09-05T02:38:47.110Z,65.36
2022-09-05T02:45:27.467Z,65.36
2022-09-05T02:45:32.806Z,65.26
2022-09-05T02:46:20.373Z,65.36
2022-09-05T02:47:20.248Z,65.26
2022-09-05T02:48:20.227Z,65.26
2022-09-05T02:50:50.118Z,65.36
2022-09-05T02:58:04.979Z,65.47
2022-09-05T02:58:12.079Z,65.50
2022-09-05T02:58:27.281Z,65.59
2022-09-05T02:59:35.877Z,65.70
2022-09-05T03:00:27.301Z,65.70
2022-09-05T03:01:27.516Z,65.70
2022-09-05T03:02:27.603Z,65.59
2022-09-05T03:03:27.237Z,65.59
2022-09-05T03:04:27.216Z,65.59
2022-09-05T03:05:27.235Z,65.70
2022-09-05T03:06:29.272Z,65.59
2022-09-05T03:07:27.193Z,65.59
2022-09-05T03:08:27.175Z,65.50
2022-09-05T03:09:27.213Z,65.59
2022-09-05T03:10:53.268Z,65.39
2022-09-05T03:11:27.155Z,65.70
2022-09-05T03:12:29.206Z,65.50
2022-09-05T03:13:27.122Z,65.70
2022-09-05T03:14:27.121Z,65.80
2022-09-05T03:15:27.120Z,65.70
2022-09-05T03:16:27.102Z,65.80
2022-09-05T03:17:27.090Z,65.80
2022-09-05T03:18:27.072Z,65.70
2022-09-05T03:19:27.061Z,65.90
2022-09-05T03:20:27.067Z,65.90
2022-09-05T03:21:27.046Z,65.80
2022-09-05T03:22:27.030Z,65.70
2022-09-05T03:23:27.068Z,65.70
2022-09-05T03:24:27.007Z,65.80
2022-09-05T03:25:27.017Z,65.80
2022-09-05T03:26:27.084Z,66.10
2022-09-05T03:27:29.195Z,66.00
2022-09-05T03:28:26.978Z,65.80
2022-09-05T03:29:26.982Z,65.90
2022-09-05T03:30:27.048Z,65.90
2022-09-05T03:31:26.966Z,66.03
2022-09-05T03:32:26.929Z,66.13
2022-09-05T03:33:26.963Z,66.13
2022-09-05T03:34:26.924Z,66.24
2022-09-05T03:35:26.906Z,66.24
2022-09-05T03:36:26.887Z,66.24
2022-09-05T03:37:26.919Z,66.13
2022-09-05T03:38:26.927Z,66.13
2022-09-05T03:39:26.879Z,66.03
2022-09-05T03:40:27.651Z,66.03
2022-09-05T03:41:39.975Z,66.13
2022-09-05T03:42:30.424Z,66.13
2022-09-05T03:43:26.808Z,66.24
2022-09-05T03:44:26.868Z,66.44
2022-09-05T03:45:36.370Z,66.44
2022-09-05T03:46:26.825Z,66.67
2022-09-05T03:47:26.767Z,66.88
2022-09-05T03:48:53.918Z,66.88
2022-09-05T03:53:28.057Z,66.88
2022-09-05T03:57:32.333Z,66.88
2022-09-05T03:57:43.195Z,67.28
2022-09-05T03:58:41.976Z,67.38
2022-09-05T03:59:24.456Z,67.38
2022-09-05T04:00:24.431Z,67.38
2022-09-05T04:04:10.826Z,67.51
2022-09-05T04:08:38.494Z,67.51
2022-09-05T04:08:44.145Z,67.38
2022-09-05T04:09:50.179Z,67.28
2022-09-05T04:10:34.853Z,67.38
2022-09-05T04:11:34.737Z,67.38
2022-09-05T04:12:34.783Z,67.28
2022-09-05T04:13:34.704Z,67.28
2022-09-05T04:14:34.786Z,67.18
2022-09-05T04:15:34.702Z,67.38
2022-09-05T04:16:35.554Z,67.28
2022-09-05T04:17:34.869Z,67.38
2022-09-05T04:18:34.887Z,67.38
2022-09-05T04:19:34.652Z,67.38
2022-09-05T04:20:39.721Z,67.18
2022-09-05T04:21:34.624Z,67.28
2022-09-05T04:22:34.611Z,67.41
2022-09-05T04:23:34.608Z,67.41
2022-09-05T04:24:34.600Z,67.51
2022-09-05T04:25:34.586Z,67.61
2022-09-05T04:26:34.563Z,67.82
2022-09-05T04:27:34.567Z,67.92
2022-09-05T04:28:34.543Z,67.92
2022-09-05T04:29:34.540Z,67.92
2022-09-05T04:30:38.808Z,67.92
2022-09-05T04:31:34.580Z,68.02
2022-09-05T04:32:34.578Z,67.92
2022-09-05T04:33:36.293Z,67.82
2022-09-05T04:34:34.497Z,67.92
2022-09-05T04:35:34.488Z,67.82
2022-09-05T04:36:34.477Z,68.02
2022-09-05T04:37:47.691Z,68.02
2022-09-05T04:38:34.455Z,68.12
2022-09-05T04:39:34.471Z,67.92
2022-09-05T04:40:34.432Z,67.82
2022-09-05T04:41:39.265Z,67.82
2022-09-05T04:42:34.410Z,67.72
2022-09-05T04:43:34.389Z,67.61
2022-09-05T04:44:34.373Z,67.61
2022-09-05T04:45:34.441Z,67.61
2022-09-05T04:46:34.350Z,67.72
2022-09-05T04:47:34.366Z,67.72
2022-09-05T04:48:34.330Z,67.72
2022-09-05T04:49:34.335Z,67.82
2022-09-05T04:50:37.831Z,67.92
2022-09-05T04:51:34.308Z,68.12
2022-09-05T04:52:34.295Z,68.12
2022-09-05T04:53:34.286Z,68.02
2022-09-05T04:54:34.276Z,67.82
2022-09-05T04:55:34.279Z,67.92
2022-09-05T04:56:34.262Z,67.72
2022-09-05T04:57:34.245Z,67.72
2022-09-05T05:00:06.187Z,67.72
2022-09-05T05:06:47.082Z,67.28
2022-09-05T05:07:21.128Z,67.58
2022-09-05T05:08:38.166Z,67.58
2022-09-05T05:09:20.991Z,67.58
2022-09-05T05:14:35.377Z,67.48
2022-09-05T05:18:41.038Z,67.48
2022-09-05T05:19:03.532Z,67.18
2022-09-05T05:19:22.052Z,67.14
2022-09-05T05:20:40.270Z,67.14
2022-09-05T05:21:20.449Z,66.94
2022-09-05T05:22:20.434Z,66.94
2022-09-05T05:23:20.419Z,67.05
2022-09-05T05:24:21.915Z,67.08
2022-09-05T05:25:20.419Z,67.18
2022-09-05T05:26:20.385Z,67.14
2022-09-05T05:27:20.381Z,67.28
2022-09-05T05:28:24.382Z,67.35
2022-09-05T05:29:20.396Z,67.25
2022-09-05T05:30:20.368Z,67.14
2022-09-05T05:31:20.408Z,67.14
2022-09-05T05:32:28.177Z,67.14
2022-09-05T05:33:20.322Z,67.14
2022-09-05T05:34:24.686Z,67.14
2022-09-05T05:35:20.317Z,67.14
2022-09-05T05:36:20.286Z,67.14
2022-09-05T05:37:20.276Z,67.14
2022-09-05T05:38:20.317Z,67.25
2022-09-05T05:39:20.257Z,67.35
2022-09-05T05:40:20.257Z,67.45
2022-09-05T05:41:20.237Z,67.25
2022-09-05T05:42:21.529Z,67.25
2022-09-05T05:43:20.212Z,67.35
2022-09-05T05:44:20.206Z,67.35
2022-09-05T05:45:20.205Z,67.35
2022-09-05T05:46:20.217Z,67.14
2022-09-05T05:47:31.989Z,67.25
2022-09-05T05:48:22.684Z,67.35
2022-09-05T05:49:20.151Z,67.45
2022-09-05T05:50:20.167Z,67.65
2022-09-05T05:51:20.144Z,67.76
2022-09-05T05:52:20.123Z,67.85
2022-09-05T05:53:33.502Z,67.85
2022-09-05T05:54:20.115Z,67.76
2022-09-05T05:55:52.261Z,67.96
2022-09-05T05:56:20.077Z,67.85
2022-09-05T05:57:20.064Z,67.76
2022-09-05T05:58:20.190Z,67.55
2022-09-05T05:59:24.471Z,67.45
2022-09-05T06:00:27.317Z,67.55
2022-09-05T06:01:31.674Z,67.55
2022-09-05T06:02:20.154Z,67.65
2022-09-05T06:03:25.492Z,67.76
2022-09-05T06:04:19.995Z,67.85
2022-09-05T06:05:19.997Z,67.85
2022-09-05T06:06:19.967Z,68.06
2022-09-05T06:07:19.965Z,67.96
2022-09-05T06:10:03.786Z,67.96
2022-09-05T06:15:10.473Z,68.26
2022-09-05T06:15:22.479Z,68.16
2022-09-05T06:16:08.553Z,68.26
2022-09-05T06:17:08.466Z,68.13
2022-09-05T06:18:08.456Z,68.13
2022-09-05T06:19:08.444Z,68.02
2022-09-05T06:22:05.454Z,68.02
2022-09-05T06:22:15.774Z,67.93
2022-09-05T06:22:22.713Z,68.23
2022-09-05T06:23:37.424Z,68.02
2022-09-05T06:24:22.500Z,67.93
2022-09-05T06:25:22.499Z,67.93
2022-09-05T06:26:22.475Z,67.82
2022-09-05T06:27:22.461Z,67.79
2022-09-05T06:28:22.456Z,67.59
2022-09-05T06:29:22.448Z,67.39
2022-09-05T06:30:22.450Z,67.35
2022-09-05T06:31:30.255Z,66.85
2022-09-05T06:32:22.420Z,66.44
2022-09-05T06:33:22.462Z,66.55
2022-09-05T06:34:32.694Z,66.55
2022-09-05T06:35:22.412Z,66.44
2022-09-05T06:36:22.375Z,66.55
2022-09-05T06:37:22.361Z,66.64
2022-09-05T06:38:22.350Z,66.44
2022-09-05T06:39:22.364Z,66.75
2022-09-05T06:40:22.353Z,66.95
2022-09-05T06:41:22.332Z,66.82
2022-09-05T06:42:39.109Z,66.82
2022-09-05T06:43:22.304Z,66.72
2022-09-05T06:44:23.989Z,66.41
2022-09-05T06:45:27.551Z,66.01
2022-09-05T06:46:25.424Z,65.78
2022-09-05T06:47:24.238Z,65.88
2022-09-05T06:48:32.073Z,65.98
2022-09-05T06:49:30.500Z,66.18
2022-09-05T06:50:26.746Z,66.18
2022-09-05T06:51:22.218Z,66.28
2022-09-05T06:52:28.386Z,66.08
2022-09-05T06:53:22.194Z,66.18
2022-09-05T06:54:22.179Z,66.28
2022-09-05T06:55:22.189Z,66.28
2022-09-05T06:56:25.844Z,66.28
2022-09-05T06:57:22.152Z,66.18
2022-09-05T06:58:22.150Z,66.28
2022-09-05T06:59:22.129Z,66.15
2022-09-05T07:00:22.869Z,65.84
2022-09-05T07:01:22.282Z,65.84
2022-09-05T07:02:46.361Z,65.84
2022-09-05T07:03:22.950Z,65.61
2022-09-05T07:05:24.708Z,65.61
2022-09-05T07:05:45.297Z,65.41
2022-09-05T07:06:22.060Z,65.18
2022-09-05T07:07:22.058Z,64.87
2022-09-05T07:08:35.458Z,64.34
2022-09-05T07:09:22.031Z,64.04
2022-09-05T07:10:37.793Z,63.70
2022-09-05T07:11:22.011Z,63.37
2022-09-05T07:12:21.999Z,62.87
2022-09-05T07:13:21.981Z,62.64
2022-09-05T07:14:21.975Z,62.34
2022-09-05T07:15:22.072Z,61.70
2022-09-05T07:16:37.001Z,61.70
2022-09-05T07:17:21.984Z,61.17
2022-09-05T07:18:21.963Z,61.17
2022-09-05T07:19:21.922Z,60.97
2022-09-05T07:20:22.085Z,61.27
2022-09-05T07:21:26.559Z,61.27
2022-09-05T07:22:46.492Z,61.14
2022-09-05T07:24:07.062Z,60.94
2022-09-05T07:24:54.721Z,60.44
2022-09-05T07:25:21.882Z,60.41
2022-09-05T07:26:49.676Z,60.28
2022-09-05T07:27:25.455Z,59.78
2022-09-05T07:28:28.887Z,58.75
2022-09-05T07:29:21.846Z,58.94
2022-09-05T07:30:21.892Z,58.62
2022-09-05T07:31:37.119Z,57.91
2022-09-05T07:32:24.501Z,57.79
2022-09-05T07:33:21.906Z,57.28
2022-09-05T07:34:21.865Z,57.59
2022-09-05T07:35:21.837Z,57.26
2022-09-05T07:36:21.747Z,57.06
2022-09-05T07:37:21.735Z,56.85
2022-09-05T07:38:21.731Z,56.76
2022-09-05T07:39:28.880Z,56.23
2022-09-05T07:40:24.990Z,56.33
2022-09-05T07:41:21.705Z,56.13
2022-09-05T07:42:21.688Z,56.23
2022-09-05T07:43:21.802Z,55.93
2022-09-05T07:44:22.173Z,56.52
2022-09-05T07:45:21.868Z,56.23
2022-09-05T07:46:21.670Z,56.76
2022-09-05T07:47:21.634Z,56.98
2022-09-05T07:48:22.259Z,57.48
2022-09-05T07:49:21.628Z,57.51
2022-09-05T07:53:43.603Z,57.59
2022-09-05T07:57:32.670Z,57.46
2022-09-05T07:57:56.124Z,56.10
2022-09-05T07:58:25.646Z,55.57
2022-09-05T07:59:25.660Z,54.94
2022-09-05T08:00:29.683Z,54.22
2022-09-05T08:01:25.753Z,54.62
2022-09-05T08:02:25.592Z,54.12
2022-09-05T08:03:25.746Z,54.22
2022-09-05T08:04:25.589Z,53.82
2022-09-05T08:05:34.407Z,53.49
2022-09-05T08:06:46.419Z,53.14
2022-09-05T08:07:53.025Z,52.32
2022-09-05T08:08:25.653Z,51.59
2022-09-05T08:10:08.174Z,51.07
2022-09-05T08:10:31.421Z,50.55
2022-09-05T08:11:26.508Z,50.13
2022-09-05T08:12:28.236Z,49.53
2022-09-05T08:13:27.491Z,49.30
2022-09-05T08:14:44.926Z,49.53
2022-09-05T08:15:25.476Z,49.83
2022-09-05T08:16:25.631Z,50.13
2022-09-05T08:17:29.887Z,49.73
2022-09-05T08:18:25.441Z,50.45
2022-09-05T08:19:25.575Z,50.97
2022-09-05T08:20:25.411Z,50.47
2022-09-05T08:21:27.134Z,50.99
2022-09-05T08:22:25.587Z,51.92
2022-09-05T08:23:25.834Z,52.12
2022-09-05T08:24:25.387Z,52.04
2022-09-05T08:25:25.358Z,52.25
2022-09-05T08:26:25.348Z,53.04
2022-09-05T08:27:25.583Z,52.97
2022-09-05T08:28:25.634Z,53.07
2022-09-05T08:29:25.339Z,52.74
2022-09-05T08:30:27.953Z,51.89
2022-09-05T08:31:25.628Z,50.95
2022-09-05T08:32:25.578Z,50.32
2022-09-05T08:33:25.430Z,48.96
2022-09-05T08:34:31.365Z,48.24
2022-09-05T08:35:25.274Z,47.08
2022-09-05T08:36:25.253Z,46.60
2022-09-05T08:37:25.249Z,46.88
2022-09-05T08:38:25.319Z,46.68
2022-09-05T08:39:25.276Z,46.86
2022-09-05T08:40:25.603Z,46.50
2022-09-05T08:41:43.136Z,47.52
2022-09-05T08:42:25.191Z,48.79
2022-09-05T08:45:58.624Z,49.73
2022-09-05T08:46:49.711Z,50.97
2022-09-05T08:46:55.626Z,53.02
2022-09-05T08:47:53.145Z,53.04
2022-09-05T08:48:53.105Z,53.47
2022-09-05T08:49:52.985Z,53.87
2022-09-05T08:50:52.964Z,54.49
2022-09-05T08:51:54.145Z,55.09
2022-09-05T08:52:52.981Z,55.52
2022-09-05T08:53:53.511Z,55.62
2022-09-05T08:55:04.114Z,55.72
2022-09-05T08:55:52.917Z,55.74
2022-09-05T08:56:53.010Z,56.15
2022-09-05T08:57:52.894Z,56.35
2022-09-05T08:59:27.107Z,56.55
2022-09-05T09:00:19.540Z,56.87
2022-09-05T09:00:56.370Z,56.77
2022-09-05T09:02:37.979Z,56.98
2022-09-05T09:02:52.937Z,57.50
2022-09-05T09:03:52.909Z,57.50
2022-09-05T09:05:01.398Z,57.50
2022-09-05T09:06:15.187Z,57.20
2022-09-05T09:06:57.951Z,57.40
2022-09-05T09:07:52.986Z,57.50
2022-09-05T09:08:52.794Z,57.80
2022-09-05T09:09:52.848Z,58.00
2022-09-05T09:10:52.760Z,58.00
2022-09-05T09:11:52.749Z,58.40
2022-09-05T09:12:52.963Z,58.61
2022-09-05T09:13:52.744Z,57.70
2022-09-05T09:14:52.888Z,58.30
2022-09-05T09:15:52.956Z,57.60
2022-09-05T09:16:52.695Z,57.87
2022-09-05T09:17:52.690Z,57.87
2022-09-05T09:18:52.709Z,57.87
2022-09-05T09:19:52.841Z,57.68
2022-09-05T09:20:52.653Z,57.87
2022-09-05T09:21:53.590Z,57.98
2022-09-05T09:22:52.655Z,57.68
2022-09-05T09:23:52.661Z,57.75
2022-09-05T09:25:08.772Z,57.24
2022-09-05T09:25:52.616Z,57.15
2022-09-05T09:26:52.590Z,57.45
2022-09-05T09:28:46.524Z,57.45
2022-09-05T09:28:55.574Z,57.45
2022-09-05T09:29:52.565Z,57.45
2022-09-05T09:30:52.572Z,57.15
2022-09-05T09:31:52.600Z,56.65
2022-09-05T09:32:55.294Z,56.85
2022-09-05T09:33:52.540Z,57.35
2022-09-05T09:34:52.751Z,57.24
2022-09-05T09:35:52.505Z,57.45
2022-09-05T09:36:52.495Z,57.24
2022-09-05T09:37:55.375Z,57.15
2022-09-05T09:38:52.476Z,57.15
2022-09-05T09:39:52.502Z,57.05
2022-09-05T09:41:00.978Z,57.24
2022-09-05T09:41:52.450Z,57.24
2022-09-05T09:42:52.446Z,57.35
2022-09-05T09:43:53.177Z,57.55
2022-09-05T09:44:52.411Z,57.15
2022-09-05T09:45:52.419Z,57.15
2022-09-05T09:46:52.433Z,57.45
2022-09-05T09:47:52.435Z,57.24
2022-09-05T09:48:52.368Z,57.55
2022-09-05T09:49:52.370Z,57.15
2022-09-05T09:50:58.408Z,57.24
2022-09-05T09:51:52.351Z,57.42
2022-09-05T09:52:52.345Z,57.32
2022-09-05T09:53:52.330Z,57.12
2022-09-05T09:54:52.307Z,57.12
2022-09-05T09:55:52.303Z,57.29
2022-09-05T09:56:52.286Z,56.49
2022-09-05T09:57:53.006Z,56.29
2022-09-05T09:58:52.268Z,56.59
2022-09-05T09:59:54.064Z,56.46
2022-09-05T10:00:52.247Z,56.37
2022-09-05T10:01:52.288Z,55.97
2022-09-05T10:05:01.294Z,56.27
2022-09-05T10:11:56.761Z,55.69
2022-09-05T10:12:31.720Z,56.20
2022-09-05T10:13:30.766Z,56.39
2022-09-05T10:14:47.820Z,56.70
2022-09-05T10:15:32.730Z,55.99
2022-09-05T10:16:30.795Z,55.99
2022-09-05T10:17:30.871Z,56.09
2022-09-05T10:18:31.622Z,55.79
2022-09-05T10:20:30.681Z,56.20
2022-09-05T10:21:30.666Z,56.29
2022-09-05T10:22:35.854Z,56.20
2022-09-05T10:23:30.693Z,56.46
2022-09-05T10:24:30.637Z,55.66
2022-09-05T10:25:30.623Z,56.27
2022-09-05T10:26:30.619Z,56.07
2022-09-05T10:27:30.619Z,56.16
2022-09-05T10:28:30.591Z,56.07
2022-09-05T10:29:35.249Z,55.97
2022-09-05T10:31:17.439Z,56.27
2022-09-05T10:35:10.888Z,56.27
2022-09-05T10:35:25.715Z,55.97
2022-09-05T10:35:31.540Z,55.44
2022-09-05T10:36:31.297Z,55.44
2022-09-05T10:37:31.154Z,55.11
2022-09-05T10:38:31.131Z,54.71
2022-09-05T10:39:31.147Z,54.41
2022-09-05T10:40:45.431Z,54.09
2022-09-05T10:41:31.099Z,52.87
2022-09-05T10:42:31.101Z,52.32
2022-09-05T10:43:31.090Z,51.72
2022-09-05T10:44:31.086Z,52.22
2022-09-05T10:45:38.279Z,52.44
2022-09-05T10:46:50.094Z,52.55
2022-09-05T10:47:31.107Z,53.14
2022-09-05T10:48:31.070Z,52.97
2022-09-05T10:49:31.029Z,52.57
2022-09-05T10:50:31.039Z,52.74
2022-09-05T10:51:31.017Z,52.74
2022-09-05T10:52:31.070Z,52.74
2022-09-05T10:53:39.782Z,52.64
2022-09-05T10:54:30.974Z,52.27
2022-09-05T10:55:30.968Z,52.67
2022-09-05T10:56:31.061Z,52.07
2022-09-05T10:57:30.963Z,51.77
2022-09-05T10:59:31.746Z,52.07
2022-09-05T11:02:38.358Z,52.37
2022-09-05T11:02:47.444Z,51.97
2022-09-05T11:03:40.392Z,52.37
2022-09-05T11:04:46.891Z,52.47
2022-09-05T11:05:40.309Z,52.57
2022-09-05T11:06:40.257Z,52.87
2022-09-05T11:07:40.248Z,52.87
2022-09-05T11:08:40.227Z,51.77
2022-09-05T11:09:40.217Z,52.07
2022-09-05T11:10:40.209Z,51.47
2022-09-05T11:11:40.197Z,50.97
2022-09-05T11:12:40.202Z,51.17
2022-09-05T11:13:40.179Z,50.67
2022-09-05T11:14:40.168Z,51.17
2022-09-05T11:15:45.784Z,51.17
2022-09-05T11:16:40.256Z,51.77
2022-09-05T11:17:40.163Z,51.75
2022-09-05T11:18:55.331Z,51.84
2022-09-05T11:19:40.119Z,51.75
2022-09-05T11:20:40.108Z,51.75
2022-09-05T11:21:40.092Z,51.15
2022-09-05T11:22:40.100Z,51.15
2022-09-05T11:23:40.111Z,51.32
2022-09-05T11:24:40.075Z,50.73
2022-09-05T11:25:41.280Z,50.23
2022-09-05T11:26:40.064Z,50.32
2022-09-05T11:27:40.057Z,50.43
2022-09-05T11:28:57.456Z,51.25
2022-09-05T11:29:40.022Z,50.43
2022-09-05T11:30:40.013Z,50.00
2022-09-05T11:32:10.494Z,50.10
2022-09-05T11:39:49.019Z,50.30
2022-09-05T11:40:28.905Z,49.70
2022-09-05T11:41:01.116Z,50.52
2022-09-05T11:41:27.075Z,50.50
2022-09-05T11:42:25.974Z,50.30
2022-09-05T11:43:25.966Z,50.50
2022-09-05T11:44:27.276Z,50.10
2022-09-05T11:45:25.938Z,50.30
2022-09-05T11:46:26.072Z,50.40
2022-09-05T11:47:29.659Z,50.50
2022-09-05T11:48:26.075Z,50.50
2022-09-05T11:49:25.881Z,50.40
2022-09-05T11:50:25.866Z,50.70
2022-09-05T11:51:32.345Z,50.32
2022-09-05T11:52:25.903Z,50.43
2022-09-05T11:53:25.840Z,50.82
2022-09-05T11:54:25.842Z,50.45
2022-09-05T11:55:25.820Z,50.65
2022-09-05T11:56:28.743Z,50.55
2022-09-05T11:57:33.771Z,50.74
2022-09-05T11:58:53.718Z,50.62
2022-09-05T11:59:33.611Z,50.10
2022-09-05T12:00:33.170Z,50.30
2022-09-05T12:01:41.135Z,50.30
2022-09-05T12:02:25.828Z,50.18
2022-09-05T12:03:53.551Z,49.58
2022-09-05T12:04:25.743Z,49.78
2022-09-05T12:05:47.451Z,49.28
2022-09-05T12:42:15.125Z,49.18
2022-09-05T12:42:34.246Z,50.32
2022-09-05T12:44:36.734Z,50.62
2022-09-05T12:44:48.443Z,50.85
2022-09-05T12:45:03.260Z,50.65
2022-09-05T12:46:05.139Z,50.95
2022-09-05T12:47:16.893Z,50.52
2022-09-05T12:48:02.979Z,50.32
2022-09-05T12:49:06.843Z,50.43
2022-09-05T12:50:14.418Z,50.73
2022-09-05T12:51:02.909Z,50.62
2022-09-05T12:52:02.968Z,50.43
2022-09-05T12:53:02.902Z,50.52
2022-09-05T12:54:02.948Z,50.13
2022-09-05T12:55:03.209Z,49.60
2022-09-05T12:57:17.247Z,49.80
2022-09-05T13:03:27.763Z,49.80
2022-09-05T13:03:34.571Z,50.00
2022-09-05T13:04:31.307Z,50.13
2022-09-05T13:05:24.900Z,50.23
2022-09-05T13:06:25.991Z,50.43
2022-09-05T13:07:24.771Z,50.32
2022-09-05T13:08:24.784Z,50.30
2022-09-05T13:09:27.752Z,50.10
2022-09-05T13:12:32.627Z,49.98
2022-09-05T13:15:21.844Z,49.78
2022-09-05T13:15:28.632Z,48.74
2022-09-05T13:16:23.161Z,48.86
2022-09-05T13:17:20.251Z,49.36
2022-09-05T13:18:20.239Z,49.06
2022-09-05T13:19:20.221Z,48.14
2022-09-05T13:20:20.208Z,47.72
2022-09-05T13:21:23.084Z,47.92
2022-09-05T13:22:20.393Z,47.50
2022-09-05T13:23:20.264Z,47.50
2022-09-05T13:24:20.155Z,47.50
2022-09-05T13:25:20.160Z,47.97
2022-09-05T13:26:20.144Z,47.70
2022-09-05T13:27:20.156Z,47.10
2022-09-05T13:28:20.119Z,47.20
2022-09-05T13:29:20.137Z,46.90
2022-09-05T13:31:51.052Z,47.20
2022-09-05T13:38:37.837Z,47.30
2022-09-05T13:38:49.919Z,48.11
2022-09-05T13:39:11.529Z,48.22
2022-09-05T13:40:11.755Z,48.52
2022-09-05T13:41:27.902Z,48.32
2022-09-05T13:42:11.488Z,48.71
2022-09-05T13:43:11.451Z,47.44
2022-09-05T13:44:26.737Z,47.94
2022-09-05T13:45:11.405Z,48.44
2022-09-05T13:46:11.486Z,48.44
2022-09-05T13:47:29.294Z,48.04
2022-09-05T13:48:11.383Z,48.14
2022-09-05T13:49:30.220Z,48.14
2022-09-05T13:50:11.368Z,48.04
2022-09-05T13:51:11.341Z,48.22
2022-09-05T13:52:11.692Z,47.92
2022-09-05T13:53:15.394Z,47.60
2022-09-05T13:54:11.645Z,47.40
2022-09-05T13:55:11.305Z,47.60
2022-09-05T13:56:11.296Z,47.60
2022-09-05T13:57:11.315Z,47.72
2022-09-05T13:58:11.279Z,48.14
2022-09-05T13:59:11.265Z,48.66
2022-09-05T14:00:27.262Z,49.06
2022-09-05T14:01:11.277Z,49.16
2022-09-05T14:02:26.288Z,49.36
2022-09-05T14:04:11.372Z,49.36
2022-09-05T14:05:17.718Z,49.46
2022-09-05T14:06:46.670Z,49.46
2022-09-05T14:08:11.190Z,50.15
2022-09-05T14:10:11.161Z,49.95
2022-09-05T14:11:11.135Z,49.95
2022-09-05T14:12:11.140Z,49.58
2022-09-05T14:13:11.120Z,49.58
2022-09-05T14:14:11.584Z,49.38
2022-09-05T14:15:12.671Z,49.38
2022-09-05T14:16:11.102Z,49.66
2022-09-05T14:18:20.631Z,49.36
2022-09-05T14:19:11.067Z,49.13
2022-09-05T14:20:11.049Z,49.13
2022-09-05T14:21:11.034Z,49.26
2022-09-05T14:22:11.460Z,49.36
2022-09-05T14:23:11.025Z,49.55
2022-09-05T14:24:11.024Z,49.16
2022-09-05T14:25:10.998Z,48.96
2022-09-05T14:26:14.775Z,48.94
2022-09-05T14:27:10.987Z,48.64
2022-09-05T14:28:11.063Z,48.96
2022-09-05T14:29:10.963Z,49.06
2022-09-05T14:31:01.035Z,49.38
2022-09-05T14:37:40.437Z,49.48
2022-09-05T14:38:09.314Z,49.88
2022-09-05T14:38:16.152Z,49.98
2022-09-05T14:39:14.369Z,49.78
2022-09-05T14:40:30.423Z,49.70
2022-09-05T14:41:12.315Z,49.88
2022-09-05T14:42:12.300Z,49.88
2022-09-05T14:43:12.301Z,49.68
2022-09-05T14:44:12.255Z,49.68
2022-09-05T14:45:12.258Z,49.46
2022-09-05T14:46:12.274Z,49.66
2022-09-05T14:47:35.164Z,49.55
2022-09-05T14:48:13.412Z,49.68
2022-09-05T14:49:12.206Z,49.98
2022-09-05T14:50:17.557Z,49.88
2022-09-05T14:51:14.776Z,49.88
2022-09-05T14:52:12.916Z,49.38
2022-09-05T14:54:12.330Z,49.98
2022-09-05T14:55:19.543Z,49.98
2022-09-05T14:57:23.213Z,50.00
2022-09-05T15:03:07.994Z,50.38
2022-09-05T15:03:14.029Z,50.48
2022-09-05T15:05:03.140Z,50.27
2022-09-05T15:06:01.802Z,50.38
2022-09-05T15:07:01.824Z,50.57
2022-09-05T15:08:01.796Z,50.60
2022-09-05T15:11:29.504Z,50.90